Time,TemperatureF,DewpointF,PressureIn,WindDirection,WindDirectionDegrees,WindSpeedMPH,WindSpeedGustMPH,Humidity,HourlyPrecipIn,Conditions,Clouds,dailyrainin,SoftwareType,DateUTC
2013-06-22 11:02:00,76.0,62.0,30.21,North,-999,-999.0,-999.0,62,0.00,,,0.00,,2013-06-22 15:02:00,
2013-06-22 11:12:00,77.0,62.0,30.21,North,-999,-999.0,-999.0,60,0.00,,,0.00,,2013-06-22 15:12:00,
2013-06-22 11:34:00,78.0,62.0,30.21,North,-999,-999.0,-999.0,57,0.00,,,0.00,,2013-06-22 15:34:00,
2013-06-22 11:43:00,78.0,63.0,30.21,North,-999,-999.0,-999.0,60,0.00,,,0.00,,2013-06-22 15:43:00,
2013-06-22 12:02:00,79.0,60.0,30.21,North,-999,-999.0,-999.0,52,0.00,,,0.00,,2013-06-22 16:02:00,
2013-06-22 12:12:00,79.0,60.0,30.21,North,-999,-999.0,-999.0,52,0.00,,,0.00,,2013-06-22 16:12:00,
2013-06-22 12:34:00,79.0,60.0,30.21,North,-999,-999.0,-999.0,52,0.00,,,0.00,,2013-06-22 16:34:00,
2013-06-22 12:43:00,79.0,60.0,30.21,North,-999,-999.0,-999.0,52,0.00,,,0.00,,2013-06-22 16:43:00,
2013-06-22 12:52:00,79.0,60.0,30.21,North,-999,-999.0,-999.0,52,0.00,,,0.00,,2013-06-22 16:52:00,
2013-06-22 13:02:00,80.0,59.0,30.20,North,-999,-999.0,-999.0,48,0.00,,,0.00,,2013-06-22 17:02:00,
2013-06-22 13:11:00,81.0,56.0,30.20,North,-999,-999.0,-999.0,43,0.00,,,0.00,,2013-06-22 17:11:00,
2013-06-22 13:34:00,82.0,57.0,30.20,North,-999,-999.0,-999.0,43,0.00,,,0.00,,2013-06-22 17:34:00,
2013-06-22 13:43:00,82.0,57.0,30.19,North,-999,-999.0,-999.0,42,0.00,,,0.00,,2013-06-22 17:43:00,
2013-06-22 13:52:00,82.0,57.0,30.19,North,-999,-999.0,-999.0,42,0.00,,,0.00,,2013-06-22 17:52:00,
2013-06-22 14:02:00,82.0,57.0,30.19,North,-999,-999.0,-999.0,42,0.00,,,0.00,,2013-06-22 18:02:00,
2013-06-22 14:12:00,83.0,58.0,30.18,North,-999,-999.0,-999.0,42,0.00,,,0.00,,2013-06-22 18:12:00,
2013-06-22 14:23:00,83.0,58.0,30.18,North,-999,-999.0,-999.0,42,0.00,,,0.00,,2013-06-22 18:23:00,
2013-06-22 14:34:00,83.0,55.0,30.18,North,-999,-999.0,-999.0,38,0.00,,,0.00,,2013-06-22 18:34:00,
2013-06-22 14:43:00,83.0,55.0,30.18,North,-999,-999.0,-999.0,38,0.00,,,0.00,,2013-06-22 18:43:00,
2013-06-22 14:52:00,83.0,55.0,30.17,North,-999,-999.0,-999.0,39,0.00,,,0.00,,2013-06-22 18:52:00,
2013-06-22 15:01:00,83.0,55.0,30.17,North,-999,-999.0,-999.0,39,0.00,,,0.00,,2013-06-22 19:01:00,
2013-06-22 15:11:00,83.0,58.0,30.17,North,-999,-999.0,-999.0,43,0.00,,,0.00,,2013-06-22 19:11:00,
2013-06-22 15:43:00,83.0,58.0,30.16,North,-999,-999.0,-999.0,42,0.00,,,0.00,,2013-06-22 19:43:00,
2013-06-22 15:53:00,83.0,56.0,30.15,North,-999,-999.0,-999.0,40,0.00,,,0.00,,2013-06-22 19:53:00,
2013-06-22 16:02:00,83.0,56.0,30.15,North,-999,-999.0,-999.0,40,0.00,,,0.00,,2013-06-22 20:02:00,
2013-06-22 16:34:00,82.0,56.0,30.14,North,-999,-999.0,-999.0,41,0.00,,,0.00,,2013-06-22 20:34:00,
2013-06-22 16:43:00,82.0,55.0,30.13,North,-999,-999.0,-999.0,39,0.00,,,0.00,,2013-06-22 20:43:00,
2013-06-22 16:53:00,82.0,58.0,30.13,North,-999,-999.0,-999.0,44,0.00,,,0.00,,2013-06-22 20:53:00,
2013-06-22 17:01:00,82.0,58.0,30.13,North,-999,-999.0,-999.0,44,0.00,,,0.00,,2013-06-22 21:01:00,
2013-06-22 17:11:00,82.0,58.0,30.12,North,-999,-999.0,-999.0,44,0.00,,,0.00,,2013-06-22 21:11:00,
2013-06-22 17:34:00,81.0,56.0,30.12,North,-999,-999.0,-999.0,43,0.00,,,0.00,,2013-06-22 21:34:00,
2013-06-22 17:43:00,81.0,56.0,30.12,North,-999,-999.0,-999.0,43,0.00,,,0.00,,2013-06-22 21:43:00,
2013-06-22 17:53:00,81.0,56.0,30.12,North,-999,-999.0,-999.0,43,0.00,,,0.00,,2013-06-22 21:53:00,
2013-06-22 18:02:00,81.0,56.0,30.12,North,-999,-999.0,-999.0,43,0.00,,,0.00,,2013-06-22 22:02:00,
2013-06-22 18:12:00,81.0,60.0,30.12,North,-999,-999.0,-999.0,49,0.00,,,0.00,,2013-06-22 22:12:00,
2013-06-22 18:23:00,80.0,57.0,30.12,North,-999,-999.0,-999.0,46,0.00,,,0.00,,2013-06-22 22:23:00,
2013-06-22 18:33:00,80.0,57.0,30.12,North,-999,-999.0,-999.0,46,0.00,,,0.00,,2013-06-22 22:33:00,
2013-06-22 18:43:00,80.0,58.0,30.12,North,-999,-999.0,-999.0,47,0.00,,,0.00,,2013-06-22 22:43:00,
2013-06-22 18:52:00,79.0,59.0,30.11,North,-999,-999.0,-999.0,51,0.00,,,0.00,,2013-06-22 22:52:00,
2013-06-22 19:02:00,79.0,59.0,30.11,North,-999,-999.0,-999.0,51,0.00,,,0.00,,2013-06-22 23:02:00,
2013-06-22 19:11:00,78.0,58.0,30.11,North,-999,-999.0,-999.0,50,0.00,,,0.00,,2013-06-22 23:11:00,
2013-06-22 19:22:00,78.0,58.0,30.11,North,-999,-999.0,-999.0,50,0.00,,,0.00,,2013-06-22 23:22:00,
2013-06-22 19:34:00,78.0,59.0,30.11,North,-999,-999.0,-999.0,53,0.00,,,0.00,,2013-06-22 23:34:00,
2013-06-22 19:43:00,77.0,59.0,30.11,North,-999,-999.0,-999.0,54,0.00,,,0.00,,2013-06-22 23:43:00,
2013-06-22 19:52:00,76.0,60.0,30.11,North,-999,-999.0,-999.0,57,0.00,,,0.00,,2013-06-22 23:52:00,
2013-06-22 20:01:00,76.0,60.0,30.11,North,-999,-999.0,-999.0,57,0.00,,,0.00,,2013-06-23 00:01:00,
2013-06-22 20:11:00,75.0,60.0,30.12,North,-999,-999.0,-999.0,59,0.00,,,0.00,,2013-06-23 00:11:00,
2013-06-22 20:34:00,74.0,60.0,30.12,North,-999,-999.0,-999.0,61,0.00,,,0.00,,2013-06-23 00:34:00,
2013-06-22 20:42:00,74.0,61.0,30.12,North,-999,-999.0,-999.0,63,0.00,,,0.00,,2013-06-23 00:42:00,
2013-06-22 20:50:00,73.0,61.0,30.12,North,-999,-999.0,-999.0,65,0.00,,,0.00,,2013-06-23 00:50:00,
2013-06-22 20:53:00,74.0,61.0,30.12,North,-999,-999.0,-999.0,63,0.00,,,0.00,,2013-06-23 00:53:00,
2013-06-22 21:01:00,74.0,61.0,30.12,North,-999,-999.0,-999.0,63,0.00,,,0.00,,2013-06-23 01:01:00,
2013-06-22 21:12:00,73.0,61.0,30.12,North,-999,-999.0,-999.0,65,0.00,,,0.00,,2013-06-23 01:12:00,
2013-06-22 21:22:00,73.0,61.0,30.12,North,-999,-999.0,-999.0,65,0.00,,,0.00,,2013-06-23 01:22:00,
2013-06-22 21:32:00,73.0,61.0,30.12,North,-999,-999.0,-999.0,65,0.00,,,0.00,,2013-06-23 01:32:00,
2013-06-22 21:42:00,73.0,61.0,30.12,North,-999,-999.0,-999.0,65,0.00,,,0.00,,2013-06-23 01:42:00,
2013-06-22 23:31:00,70.0,59.0,30.15,North,-999,-999.0,-999.0,67,0.00,,,0.00,,2013-06-23 03:31:00,
2013-06-22 23:41:00,70.0,59.0,30.15,North,-999,-999.0,-999.0,67,0.00,,,0.00,,2013-06-23 03:41:00,
2013-06-22 23:52:00,70.0,59.0,30.15,North,-999,-999.0,-999.0,67,0.00,,,0.00,,2013-06-23 03:52:00,